Terminal Aerodrome Forecast
Issued by NWS

Home | Current Version | Previous Version | Text Only | Print | Product List | Glossary On
Versions: 1 2 3 4 5 6 7 8 9 10 11 12 13 14 15 16 17 18 19 20 21 22 23 24 25 26 27 28 29 30 31 32
000
FTUS44 KHGX 211733
TAFSGR
TAF
KSGR 211733Z 2118/2218 07004KT P6SM OVC100
     FM220300 14005KT P6SM FEW015 BKN025
     FM220600 VRB03KT P6SM MIFG OVC015
     FM221500 21009KT P6SM SCT007 BKN015=

USA.gov is the U.S. government's official web portal to all federal, state and local government web resources and services.